createdAt,value
2016-07-27T00:00:01.606Z,74431
2016-07-27T00:00:10.350Z,74431
2016-07-27T00:00:19.083Z,74433
2016-07-27T00:00:27.866Z,74431
2016-07-27T00:00:36.605Z,74432
2016-07-27T00:00:45.329Z,74426
2016-07-27T00:00:54.083Z,74429
2016-07-27T00:01:02.848Z,74427
2016-07-27T00:01:11.632Z,74429
2016-07-27T00:01:20.408Z,74429
2016-07-27T00:01:29.101Z,74430
2016-07-27T00:01:37.792Z,74429
2016-07-27T00:01:46.585Z,74428
2016-07-27T00:01:55.336Z,74432
2016-07-27T00:02:04.090Z,74430
2016-07-27T00:02:12.818Z,74426
2016-07-27T00:02:21.566Z,74429
2016-07-27T00:02:30.335Z,74430
2016-07-27T00:02:39.091Z,74428
2016-07-27T00:02:47.781Z,74427
2016-07-27T00:02:56.576Z,74428
2016-07-27T00:03:05.326Z,74428
2016-07-27T00:03:14.027Z,74429
2016-07-27T00:03:22.712Z,74426
2016-07-27T00:03:31.372Z,74426
2016-07-27T00:03:40.153Z,74428
2016-07-27T00:03:48.859Z,74428
2016-07-27T00:03:57.551Z,74425
2016-07-27T00:04:06.249Z,74430
2016-07-27T00:04:14.977Z,74428
2016-07-27T00:04:23.763Z,74430
2016-07-27T00:04:32.646Z,74426
2016-07-27T00:04:41.415Z,74427
2016-07-27T00:04:50.137Z,74430
2016-07-27T00:04:58.960Z,74431
2016-07-27T00:05:07.742Z,74427
2016-07-27T00:05:16.522Z,74430
2016-07-27T00:05:25.271Z,74428
2016-07-27T00:05:34.049Z,74429
2016-07-27T00:05:42.818Z,74429
2016-07-27T00:05:51.595Z,74427
2016-07-27T00:06:00.348Z,74429
2016-07-27T00:06:09.068Z,74429
2016-07-27T00:06:26.620Z,74428
2016-07-27T00:06:35.424Z,74431
2016-07-27T00:06:44.146Z,74433
2016-07-27T00:06:52.901Z,74427
2016-07-27T00:07:01.613Z,74429
2016-07-27T00:07:10.332Z,74431
2016-07-27T00:07:19.018Z,74427
2016-07-27T00:07:27.772Z,74424
2016-07-27T00:07:36.430Z,74429
2016-07-27T00:07:45.162Z,74427
2016-07-27T00:07:53.843Z,74426
2016-07-27T00:08:02.542Z,74425
2016-07-27T00:08:11.220Z,74429
2016-07-27T00:08:20.003Z,74429
2016-07-27T00:08:28.788Z,74431
2016-07-27T00:08:37.565Z,74426
2016-07-27T00:08:46.323Z,74427
2016-07-27T00:08:55.075Z,74430
2016-07-27T00:09:03.796Z,74427
2016-07-27T00:09:12.518Z,74423
2016-07-27T00:09:21.302Z,74424
2016-07-27T00:09:30.038Z,74426
2016-07-27T00:09:38.728Z,74428
2016-07-27T00:09:47.483Z,74427
2016-07-27T00:09:56.891Z,74428
2016-07-27T00:10:05.588Z,74428
2016-07-27T00:10:14.316Z,74431
2016-07-27T00:10:23.067Z,74424
2016-07-27T00:10:31.790Z,74428
2016-07-27T00:10:40.531Z,74429
2016-07-27T00:10:49.239Z,74426
2016-07-27T00:10:58.023Z,74427
2016-07-27T00:11:06.753Z,74428
2016-07-27T00:11:15.531Z,74426
2016-07-27T00:11:24.228Z,74424
2016-07-27T00:11:32.984Z,74423
2016-07-27T00:11:41.720Z,74423
2016-07-27T00:11:50.475Z,74429
2016-07-27T00:11:59.290Z,74425
2016-07-27T00:12:08.058Z,74426
2016-07-27T00:12:16.776Z,74426
2016-07-27T00:12:25.494Z,74425
2016-07-27T00:12:34.215Z,74425
2016-07-27T00:12:42.939Z,74421
2016-07-27T00:12:51.681Z,74425
2016-07-27T00:13:00.435Z,74423
2016-07-27T00:13:09.138Z,74422
2016-07-27T00:13:17.886Z,74425
2016-07-27T00:13:26.651Z,74423
2016-07-27T00:13:35.356Z,74425
2016-07-27T00:13:44.079Z,74422
2016-07-27T00:13:52.834Z,74424
2016-07-27T00:14:01.606Z,74426
2016-07-27T00:14:10.314Z,74423
2016-07-27T00:14:19.086Z,74422
2016-07-27T00:14:27.867Z,74426
2016-07-27T00:14:36.537Z,74426
2016-07-27T00:14:45.324Z,74425
2016-07-27T00:14:54.047Z,74422
2016-07-27T00:15:02.836Z,74424
2016-07-27T00:15:11.500Z,74425
2016-07-27T00:15:20.225Z,74422
2016-07-27T00:15:28.989Z,74422
2016-07-27T00:15:37.713Z,74425
2016-07-27T00:15:46.449Z,74424
2016-07-27T00:15:55.173Z,74424
2016-07-27T00:16:03.895Z,74422
2016-07-27T00:16:12.619Z,74423
2016-07-27T00:16:21.423Z,74423
2016-07-27T00:16:30.079Z,74423
2016-07-27T00:16:38.840Z,74424
2016-07-27T00:16:47.568Z,74422
2016-07-27T00:16:56.308Z,74422
2016-07-27T00:17:05.097Z,74423
2016-07-27T00:17:13.851Z,74420
2016-07-27T00:17:22.575Z,74425
2016-07-27T00:17:31.286Z,74423
2016-07-27T00:17:40.037Z,74422
2016-07-27T00:17:48.790Z,74422
2016-07-27T00:17:57.499Z,74424
2016-07-27T00:18:06.255Z,74423
2016-07-27T00:18:14.975Z,74424
2016-07-27T00:18:23.735Z,74423
2016-07-27T00:18:32.474Z,74424
2016-07-27T00:18:41.222Z,74424
2016-07-27T00:18:49.953Z,74425
2016-07-27T00:18:58.694Z,74431
2016-07-27T00:19:07.426Z,74428
2016-07-27T00:19:16.192Z,74428
2016-07-27T00:19:24.980Z,74427
2016-07-27T00:19:33.764Z,74428
2016-07-27T00:19:42.551Z,74429
2016-07-27T00:19:51.296Z,74429
2016-07-27T00:20:08.676Z,74424
2016-07-27T00:20:17.409Z,74429
2016-07-27T00:20:26.130Z,74427
2016-07-27T00:20:34.907Z,74427
2016-07-27T00:20:43.636Z,74426
2016-07-27T00:20:52.425Z,74430
2016-07-27T00:21:01.180Z,74430
2016-07-27T00:21:09.873Z,74430
2016-07-27T00:21:18.626Z,74429
2016-07-27T00:21:36.116Z,74429
2016-07-27T00:21:44.780Z,74430
2016-07-27T00:21:53.486Z,74428
2016-07-27T00:22:02.229Z,74428
2016-07-27T00:22:10.959Z,74428
2016-07-27T00:22:19.734Z,74426
2016-07-27T00:22:28.403Z,74428
2016-07-27T00:22:37.189Z,74427
2016-07-27T00:22:45.978Z,74428
2016-07-27T00:22:54.742Z,74427
2016-07-27T00:23:03.479Z,74427
2016-07-27T00:23:12.201Z,74427
2016-07-27T00:23:20.945Z,74431
2016-07-27T00:23:29.739Z,74426
2016-07-27T00:23:38.446Z,74429
2016-07-27T00:23:47.134Z,74431
2016-07-27T00:23:55.849Z,74425
2016-07-27T00:24:04.570Z,74427
2016-07-27T00:24:13.269Z,74426
2016-07-27T00:24:21.958Z,74430
2016-07-27T00:24:30.759Z,74425
2016-07-27T00:24:39.565Z,74425
2016-07-27T00:24:48.287Z,74428
2016-07-27T00:24:57.039Z,74428
2016-07-27T00:25:05.736Z,74426
2016-07-27T00:25:14.495Z,74427
2016-07-27T00:25:23.259Z,74428
2016-07-27T00:25:31.981Z,74430
2016-07-27T00:25:40.734Z,74425
2016-07-27T00:25:49.423Z,74429
2016-07-27T00:25:58.145Z,74427
2016-07-27T00:26:06.919Z,74430
2016-07-27T00:26:15.624Z,74427
2016-07-27T00:26:24.332Z,74425
2016-07-27T00:26:33.126Z,74426
2016-07-27T00:26:41.850Z,74427
2016-07-27T00:26:50.599Z,74422
2016-07-27T00:26:59.321Z,74425
2016-07-27T00:27:08.008Z,74426
2016-07-27T00:27:16.767Z,74424
2016-07-27T00:27:25.518Z,74419
2016-07-27T00:27:34.236Z,74422
2016-07-27T00:27:42.972Z,74424
2016-07-27T00:27:51.694Z,74423
2016-07-27T00:28:00.422Z,74422
2016-07-27T00:28:09.203Z,74421
2016-07-27T00:28:17.954Z,74426
2016-07-27T00:28:26.738Z,74422
2016-07-27T00:28:35.504Z,74420
2016-07-27T00:28:44.297Z,74421
2016-07-27T00:28:52.975Z,74426
2016-07-27T00:29:01.761Z,74424
2016-07-27T00:29:10.487Z,74420
2016-07-27T00:29:19.200Z,74421
2016-07-27T00:29:27.986Z,74424
2016-07-27T00:29:36.688Z,74422
2016-07-27T00:29:45.474Z,74420
2016-07-27T00:29:54.252Z,74421
2016-07-27T00:30:03.060Z,74421
2016-07-27T00:30:11.775Z,74422
2016-07-27T00:30:20.500Z,74420
2016-07-27T00:30:29.221Z,74422
2016-07-27T00:30:37.982Z,74424
2016-07-27T00:30:46.734Z,74423
2016-07-27T00:30:55.452Z,74418
2016-07-27T00:31:04.176Z,74419
2016-07-27T00:31:12.932Z,74420
2016-07-27T00:31:21.612Z,74419
2016-07-27T00:31:30.376Z,74415
2016-07-27T00:31:39.121Z,74416
2016-07-27T00:31:47.823Z,74419
2016-07-27T00:31:56.598Z,74418
2016-07-27T00:32:05.354Z,74418
2016-07-27T00:32:14.733Z,74418
2016-07-27T00:32:23.453Z,74418
2016-07-27T00:32:32.194Z,74418
2016-07-27T00:32:40.878Z,74417
2016-07-27T00:32:49.613Z,74420
2016-07-27T00:32:58.368Z,74417
2016-07-27T00:33:07.112Z,74417
2016-07-27T00:33:15.801Z,74416
2016-07-27T00:33:24.515Z,74416
2016-07-27T00:33:33.290Z,74415
2016-07-27T00:33:42.023Z,74419
2016-07-27T00:33:50.807Z,74415
2016-07-27T00:33:59.569Z,74415
2016-07-27T00:34:09.035Z,74416
2016-07-27T00:34:17.713Z,74418
2016-07-27T00:34:27.092Z,74417
2016-07-27T00:34:35.879Z,74417
2016-07-27T00:34:44.643Z,74419
2016-07-27T00:34:53.406Z,74419
2016-07-27T00:35:02.150Z,74416
2016-07-27T00:35:10.907Z,74415
2016-07-27T00:35:19.700Z,74417
2016-07-27T00:35:28.407Z,74414
2016-07-27T00:35:37.124Z,74415
2016-07-27T00:35:45.854Z,74415
2016-07-27T00:35:54.567Z,74417
2016-07-27T00:36:03.289Z,74412
2016-07-27T00:36:12.057Z,74416
2016-07-27T00:36:29.654Z,74417
2016-07-27T00:36:38.402Z,74415
2016-07-27T00:36:47.093Z,74415
2016-07-27T00:36:55.813Z,74413
2016-07-27T00:37:04.536Z,74413
2016-07-27T00:37:13.222Z,74414
2016-07-27T00:37:21.972Z,74413
2016-07-27T00:37:30.736Z,74417
2016-07-27T00:37:39.506Z,74413
2016-07-27T00:37:48.229Z,74413
2016-07-27T00:37:56.924Z,74413
2016-07-27T00:38:05.662Z,74413
2016-07-27T00:38:14.423Z,74416
2016-07-27T00:38:23.242Z,74413
2016-07-27T00:38:32.029Z,74410
2016-07-27T00:38:40.794Z,74413
2016-07-27T00:38:49.499Z,74410
2016-07-27T00:38:58.249Z,74410
2016-07-27T00:39:06.967Z,74411
2016-07-27T00:39:15.636Z,74411
2016-07-27T00:39:24.351Z,74411
2016-07-27T00:39:33.058Z,74411
2016-07-27T00:39:41.850Z,74412
2016-07-27T00:39:50.639Z,74411
2016-07-27T00:39:59.349Z,74406
2016-07-27T00:40:08.054Z,74410
2016-07-27T00:40:16.808Z,74411
2016-07-27T00:40:25.591Z,74413
2016-07-27T00:40:34.334Z,74412
2016-07-27T00:40:43.022Z,74411
2016-07-27T00:40:51.714Z,74410
2016-07-27T00:41:00.410Z,74407
2016-07-27T00:41:09.153Z,74411
2016-07-27T00:41:17.841Z,74407
2016-07-27T00:41:26.570Z,74410
2016-07-27T00:41:35.351Z,74410
2016-07-27T00:41:44.117Z,74407
2016-07-27T00:41:52.838Z,74411
2016-07-27T00:42:01.553Z,74409
2016-07-27T00:42:10.288Z,74409
2016-07-27T00:42:19.041Z,74409
2016-07-27T00:42:27.778Z,74408
2016-07-27T00:42:36.435Z,74405
2016-07-27T00:42:45.197Z,74408
2016-07-27T00:42:54.004Z,74407
2016-07-27T00:43:02.723Z,74410
2016-07-27T00:43:12.128Z,74409
2016-07-27T00:43:20.819Z,74411
2016-07-27T00:43:29.574Z,74407
2016-07-27T00:43:38.274Z,74410
2016-07-27T00:43:47.026Z,74409
2016-07-27T00:43:55.738Z,74406
2016-07-27T00:44:04.491Z,74406
2016-07-27T00:44:13.209Z,74408
2016-07-27T00:44:21.971Z,74408
2016-07-27T00:44:30.721Z,74406
2016-07-27T00:44:39.460Z,74408
2016-07-27T00:44:48.192Z,74410
2016-07-27T00:44:56.909Z,74408
2016-07-27T00:45:06.293Z,74404
2016-07-27T00:45:15.012Z,74408
2016-07-27T00:45:23.775Z,74410
2016-07-27T00:45:32.528Z,74412
2016-07-27T00:45:41.206Z,74406
2016-07-27T00:45:50.004Z,74410
2016-07-27T00:45:58.781Z,74411
2016-07-27T00:46:07.510Z,74407
2016-07-27T00:46:16.249Z,74410
2016-07-27T00:46:24.985Z,74410
2016-07-27T00:46:33.702Z,74407
2016-07-27T00:46:42.412Z,74407
2016-07-27T00:46:51.080Z,74408
2016-07-27T00:46:59.799Z,74412
2016-07-27T00:47:08.498Z,74406
2016-07-27T00:47:17.286Z,74405
2016-07-27T00:47:26.073Z,74411
2016-07-27T00:47:34.838Z,74408
2016-07-27T00:47:43.586Z,74407
2016-07-27T00:47:52.277Z,74407
2016-07-27T00:48:01.026Z,74408
2016-07-27T00:48:09.735Z,74411
2016-07-27T00:48:18.434Z,74404
2016-07-27T00:48:27.153Z,74406
2016-07-27T00:48:35.843Z,74407
2016-07-27T00:48:44.590Z,74411
2016-07-27T00:48:53.342Z,74405
2016-07-27T00:49:02.141Z,74405
2016-07-27T00:49:10.883Z,74410
2016-07-27T00:49:19.603Z,74408
2016-07-27T00:49:28.330Z,74408
2016-07-27T00:49:37.112Z,74411
2016-07-27T00:49:45.863Z,74413
2016-07-27T00:49:54.648Z,74411
2016-07-27T00:50:03.423Z,74407
2016-07-27T00:50:12.114Z,74406
2016-07-27T00:50:20.854Z,74407
2016-07-27T00:50:29.549Z,74410
2016-07-27T00:50:38.304Z,74405
2016-07-27T00:50:47.017Z,74409
2016-07-27T00:50:55.784Z,74410
2016-07-27T00:51:04.586Z,74410
2016-07-27T00:51:13.303Z,74407
2016-07-27T00:51:21.994Z,74403
2016-07-27T00:51:39.475Z,74406
2016-07-27T00:51:48.161Z,74405
2016-07-27T00:51:56.886Z,74405
2016-07-27T00:52:05.617Z,74401
2016-07-27T00:52:14.313Z,74401
2016-07-27T00:52:23.020Z,74402
2016-07-27T00:52:31.758Z,74401
2016-07-27T00:52:40.487Z,74402
2016-07-27T00:52:49.238Z,74402
2016-07-27T00:52:58.019Z,74403
2016-07-27T00:53:06.757Z,74399
2016-07-27T00:53:15.518Z,74403
2016-07-27T00:53:24.268Z,74403
2016-07-27T00:53:33.055Z,74403
2016-07-27T00:53:41.810Z,74403
2016-07-27T00:53:50.529Z,74406
2016-07-27T00:53:59.293Z,74402
2016-07-27T00:54:08.052Z,74405
2016-07-27T00:54:16.839Z,74404
2016-07-27T00:54:25.548Z,74400
2016-07-27T00:54:34.265Z,74405
2016-07-27T00:54:42.969Z,74405
2016-07-27T00:54:51.725Z,74404
2016-07-27T00:55:00.446Z,74402
2016-07-27T00:55:09.200Z,74406
2016-07-27T00:55:17.879Z,74403
2016-07-27T00:55:26.583Z,74399
2016-07-27T00:55:35.389Z,74405
2016-07-27T00:55:44.080Z,74400
2016-07-27T00:55:52.808Z,74400
2016-07-27T00:56:01.549Z,74402
2016-07-27T00:56:10.272Z,74400
2016-07-27T00:56:18.974Z,74403
2016-07-27T00:56:27.760Z,74403
2016-07-27T00:56:36.536Z,74400
2016-07-27T00:56:45.286Z,74402
2016-07-27T00:56:54.020Z,74397
2016-07-27T00:57:02.718Z,74402
2016-07-27T00:57:11.463Z,74397
2016-07-27T00:57:20.155Z,74399
2016-07-27T00:57:28.849Z,74399
2016-07-27T00:57:37.598Z,74401
2016-07-27T00:57:46.358Z,74400
2016-07-27T00:57:55.139Z,74399
2016-07-27T00:58:03.955Z,74400
2016-07-27T00:58:12.725Z,74400
2016-07-27T00:58:21.414Z,74401
2016-07-27T00:58:30.198Z,74399
2016-07-27T00:58:39.609Z,74398
2016-07-27T00:58:48.364Z,74401
2016-07-27T00:58:57.098Z,74398
2016-07-27T00:59:05.822Z,74403
2016-07-27T00:59:14.545Z,74396
2016-07-27T00:59:23.301Z,74399
2016-07-27T00:59:32.046Z,74403
2016-07-27T00:59:40.795Z,74399
2016-07-27T00:59:49.526Z,74399
2016-07-27T00:59:58.296Z,74395
2016-07-27T01:00:07.020Z,74401
2016-07-27T01:00:15.793Z,74401
2016-07-27T01:00:24.565Z,74401
2016-07-27T01:00:33.258Z,74399
2016-07-27T01:00:41.990Z,74403
2016-07-27T01:00:50.757Z,74398
2016-07-27T01:00:59.472Z,74401
2016-07-27T01:01:08.192Z,74398
2016-07-27T01:01:16.864Z,74397
2016-07-27T01:01:25.620Z,74397
2016-07-27T01:01:34.395Z,74400
2016-07-27T01:01:43.147Z,74400
2016-07-27T01:01:51.895Z,74397
2016-07-27T01:02:00.677Z,74400
2016-07-27T01:02:09.462Z,74398
2016-07-27T01:02:18.895Z,74394
2016-07-27T01:02:27.616Z,74396
2016-07-27T01:02:36.397Z,74398
2016-07-27T01:02:45.115Z,74396
2016-07-27T01:02:53.833Z,74399
2016-07-27T01:03:02.619Z,74395
2016-07-27T01:03:12.046Z,74397
2016-07-27T01:03:20.746Z,74397
2016-07-27T01:03:29.461Z,74398
2016-07-27T01:03:38.257Z,74397
2016-07-27T01:03:47.002Z,74394
2016-07-27T01:03:55.736Z,74396
2016-07-27T01:04:04.481Z,74393
2016-07-27T01:04:13.173Z,74397
2016-07-27T01:04:21.864Z,74395
2016-07-27T01:04:30.592Z,74396
2016-07-27T01:04:39.340Z,74399
2016-07-27T01:04:48.078Z,74396
2016-07-27T01:04:56.780Z,74397
2016-07-27T01:05:05.595Z,74396
2016-07-27T01:05:14.295Z,74398
2016-07-27T01:05:23.082Z,74397
2016-07-27T01:05:31.827Z,74397
2016-07-27T01:05:40.551Z,74398
2016-07-27T01:05:49.270Z,74397
2016-07-27T01:05:58.028Z,74397
2016-07-27T01:06:06.732Z,74397
2016-07-27T01:06:15.524Z,74394
2016-07-27T01:06:33.000Z,74399
2016-07-27T01:06:41.734Z,74396
2016-07-27T01:06:50.547Z,74396
2016-07-27T01:06:59.303Z,74394
2016-07-27T01:07:07.981Z,74397
2016-07-27T01:07:16.714Z,74395
2016-07-27T01:07:25.499Z,74397
2016-07-27T01:07:34.241Z,74395
2016-07-27T01:07:42.972Z,74399
2016-07-27T01:07:51.691Z,74397
2016-07-27T01:08:00.346Z,74396
2016-07-27T01:08:09.066Z,74397
2016-07-27T01:08:17.822Z,74391
2016-07-27T01:08:26.600Z,74395
2016-07-27T01:08:35.390Z,74396
2016-07-27T01:08:44.115Z,74395
2016-07-27T01:08:52.850Z,74394
2016-07-27T01:09:01.534Z,74393
2016-07-27T01:09:10.230Z,74395
2016-07-27T01:09:18.937Z,74392
2016-07-27T01:09:27.647Z,74391
2016-07-27T01:09:36.405Z,74395
2016-07-27T01:09:45.095Z,74396
2016-07-27T01:09:53.808Z,74393
2016-07-27T01:10:02.599Z,74395
2016-07-27T01:10:11.316Z,74394
2016-07-27T01:10:20.119Z,74393
2016-07-27T01:10:28.850Z,74393
2016-07-27T01:10:37.624Z,74392
2016-07-27T01:10:46.390Z,74390
2016-07-27T01:10:55.093Z,74389
2016-07-27T01:11:03.862Z,74392
2016-07-27T01:11:12.580Z,74391
2016-07-27T01:11:21.305Z,74391
2016-07-27T01:11:30.075Z,74397
2016-07-27T01:11:38.798Z,74395
2016-07-27T01:11:47.504Z,74393
2016-07-27T01:11:56.197Z,74393
2016-07-27T01:12:04.950Z,74392
2016-07-27T01:12:13.756Z,74391
2016-07-27T01:12:22.455Z,74392
2016-07-27T01:12:31.263Z,74394
2016-07-27T01:12:40.001Z,74394
2016-07-27T01:12:48.710Z,74393
2016-07-27T01:12:57.454Z,74393
2016-07-27T01:13:06.113Z,74393
2016-07-27T01:13:14.815Z,74390
2016-07-27T01:13:23.596Z,74389
2016-07-27T01:13:32.284Z,74390
2016-07-27T01:13:40.936Z,74393
2016-07-27T01:13:49.668Z,74390
2016-07-27T01:13:58.451Z,74387
2016-07-27T01:14:07.186Z,74386
2016-07-27T01:14:15.962Z,74390
2016-07-27T01:14:24.689Z,74391
2016-07-27T01:14:33.385Z,74391
2016-07-27T01:14:42.140Z,74391
2016-07-27T01:14:50.890Z,74389
2016-07-27T01:14:59.557Z,74389
2016-07-27T01:15:08.295Z,74390
2016-07-27T01:15:17.020Z,74389
2016-07-27T01:15:25.801Z,74396
2016-07-27T01:15:34.545Z,74390
2016-07-27T01:15:43.209Z,74393
2016-07-27T01:15:51.928Z,74390
2016-07-27T01:16:01.312Z,74392
2016-07-27T01:16:10.037Z,74390
2016-07-27T01:16:18.759Z,74392
2016-07-27T01:16:27.512Z,74391
2016-07-27T01:16:36.235Z,74388
2016-07-27T01:16:44.949Z,74389
2016-07-27T01:16:53.669Z,74389
2016-07-27T01:17:02.385Z,74391
2016-07-27T01:17:11.145Z,74387
2016-07-27T01:17:19.952Z,74390
2016-07-27T01:17:28.670Z,74388
2016-07-27T01:17:37.359Z,74387
2016-07-27T01:17:46.018Z,74390
2016-07-27T01:17:54.780Z,74386
2016-07-27T01:18:03.522Z,74387
2016-07-27T01:18:12.295Z,74387
2016-07-27T01:18:21.016Z,74388
2016-07-27T01:18:29.711Z,74385
2016-07-27T01:18:38.460Z,74387
2016-07-27T01:18:47.191Z,74388
2016-07-27T01:18:55.900Z,74385
2016-07-27T01:19:04.664Z,74386
2016-07-27T01:19:13.448Z,74386
2016-07-27T01:19:22.192Z,74386
2016-07-27T01:19:30.946Z,74387
2016-07-27T01:19:40.359Z,74385
2016-07-27T01:19:49.115Z,74386
2016-07-27T01:19:57.825Z,74388
2016-07-27T01:20:06.520Z,74388
2016-07-27T01:20:15.285Z,74385
2016-07-27T01:20:24.678Z,74385
2016-07-27T01:20:33.364Z,74386
2016-07-27T01:20:42.053Z,74386
2016-07-27T01:20:51.467Z,74388
2016-07-27T01:21:00.861Z,74382
2016-07-27T01:21:09.626Z,74387
2016-07-27T01:21:18.314Z,74386
2016-07-27T01:21:35.788Z,74389
2016-07-27T01:21:44.579Z,74387
2016-07-27T01:21:53.291Z,74388
2016-07-27T01:22:02.014Z,74387
2016-07-27T01:22:10.712Z,74386
2016-07-27T01:22:19.481Z,74384
2016-07-27T01:22:28.209Z,74386
2016-07-27T01:22:37.577Z,74385
2016-07-27T01:22:46.363Z,74389
2016-07-27T01:22:55.106Z,74388
2016-07-27T01:23:03.865Z,74386
2016-07-27T01:23:12.599Z,74386
2016-07-27T01:23:21.392Z,74386
2016-07-27T01:23:30.094Z,74386
2016-07-27T01:23:38.884Z,74385
2016-07-27T01:23:47.626Z,74387
2016-07-27T01:23:56.319Z,74385
2016-07-27T01:24:05.005Z,74386
2016-07-27T01:24:13.770Z,74384
2016-07-27T01:24:22.474Z,74386
2016-07-27T01:24:31.196Z,74388
2016-07-27T01:24:39.960Z,74387
2016-07-27T01:24:48.715Z,74384
2016-07-27T01:24:57.486Z,74383
2016-07-27T01:25:06.208Z,74385
2016-07-27T01:25:14.906Z,74384
2016-07-27T01:25:23.653Z,74385
2016-07-27T01:25:32.385Z,74384
2016-07-27T01:25:41.202Z,74383
2016-07-27T01:25:49.951Z,74381
2016-07-27T01:25:58.690Z,74382
2016-07-27T01:26:07.378Z,74384
2016-07-27T01:26:16.107Z,74386
2016-07-27T01:26:24.856Z,74382
2016-07-27T01:26:33.612Z,74380
2016-07-27T01:26:42.395Z,74383
2016-07-27T01:26:51.118Z,74378
2016-07-27T01:26:59.905Z,74381
2016-07-27T01:27:08.599Z,74380
2016-07-27T01:27:17.355Z,74377
2016-07-27T01:27:26.046Z,74382
2016-07-27T01:27:34.803Z,74379
2016-07-27T01:27:43.533Z,74379
2016-07-27T01:27:52.236Z,74377
2016-07-27T01:28:00.951Z,74379
2016-07-27T01:28:09.638Z,74379
2016-07-27T01:28:19.050Z,74378
2016-07-27T01:28:27.837Z,74380
2016-07-27T01:28:36.578Z,74378
2016-07-27T01:28:45.334Z,74378
2016-07-27T01:28:54.054Z,74379
2016-07-27T01:29:02.863Z,74377
2016-07-27T01:29:11.596Z,74380
2016-07-27T01:29:20.350Z,74376
2016-07-27T01:29:29.068Z,74378
2016-07-27T01:29:37.797Z,74378
2016-07-27T01:29:46.579Z,74377
2016-07-27T01:29:55.275Z,74375
2016-07-27T01:30:04.019Z,74376
2016-07-27T01:30:12.682Z,74377
2016-07-27T01:30:21.431Z,74377
2016-07-27T01:30:30.165Z,74376
2016-07-27T01:30:38.922Z,74380
2016-07-27T01:30:47.679Z,74376
2016-07-27T01:30:56.430Z,74380
2016-07-27T01:31:05.180Z,74375
2016-07-27T01:31:13.914Z,74374
2016-07-27T01:31:22.683Z,74374
2016-07-27T01:31:31.336Z,74377
2016-07-27T01:31:40.037Z,74375
2016-07-27T01:31:48.779Z,74374
2016-07-27T01:31:57.537Z,74374
2016-07-27T01:32:06.326Z,74373
2016-07-27T01:32:15.075Z,74375
2016-07-27T01:32:23.839Z,74374
2016-07-27T01:32:32.625Z,74375
2016-07-27T01:32:41.370Z,74375
2016-07-27T01:32:50.133Z,74371
2016-07-27T01:32:58.849Z,74371
2016-07-27T01:33:07.598Z,74375
2016-07-27T01:33:16.302Z,74375
2016-07-27T01:33:25.023Z,74371
2016-07-27T01:33:33.759Z,74372
2016-07-27T01:33:43.255Z,74372
2016-07-27T01:33:52.021Z,74374
2016-07-27T01:34:00.829Z,74374
2016-07-27T01:34:09.568Z,74374
2016-07-27T01:34:18.280Z,74373
2016-07-27T01:34:27.015Z,74371
2016-07-27T01:34:36.462Z,74372
2016-07-27T01:34:45.213Z,74372
2016-07-27T01:34:53.953Z,74373
2016-07-27T01:35:02.671Z,74372
2016-07-27T01:35:11.358Z,74371
2016-07-27T01:35:20.099Z,74370
2016-07-27T01:35:28.857Z,74372
2016-07-27T01:35:37.602Z,74372
2016-07-27T01:35:46.306Z,74371
2016-07-27T01:35:55.085Z,74369
2016-07-27T01:36:03.809Z,74368
2016-07-27T01:36:12.564Z,74373
2016-07-27T01:36:21.298Z,74369
2016-07-27T01:36:38.840Z,74367
2016-07-27T01:36:47.591Z,74368
2016-07-27T01:36:56.297Z,74369
2016-07-27T01:37:05.041Z,74367
2016-07-27T01:37:13.773Z,74370
2016-07-27T01:37:22.529Z,74369
2016-07-27T01:37:31.316Z,74372
2016-07-27T01:37:40.046Z,74370
2016-07-27T01:37:48.824Z,74370
2016-07-27T01:37:57.613Z,74370
2016-07-27T01:38:06.356Z,74369
2016-07-27T01:38:15.117Z,74367
2016-07-27T01:38:23.826Z,74369
2016-07-27T01:38:32.523Z,74370
2016-07-27T01:38:41.295Z,74369
2016-07-27T01:38:50.029Z,74371
2016-07-27T01:38:58.831Z,74369
2016-07-27T01:39:07.591Z,74372
2016-07-27T01:39:16.338Z,74372
2016-07-27T01:39:25.003Z,74368
2016-07-27T01:39:33.702Z,74369
2016-07-27T01:39:42.402Z,74371
2016-07-27T01:39:51.178Z,74370
2016-07-27T01:39:59.896Z,74368
2016-07-27T01:40:08.585Z,74367
2016-07-27T01:40:17.347Z,74368
2016-07-27T01:40:26.054Z,74369
2016-07-27T01:40:34.777Z,74368
2016-07-27T01:40:43.466Z,74366
2016-07-27T01:40:52.193Z,74370
2016-07-27T01:41:00.927Z,74366
2016-07-27T01:41:09.640Z,74368
2016-07-27T01:41:18.417Z,74367
2016-07-27T01:41:27.167Z,74368
2016-07-27T01:41:35.865Z,74369
2016-07-27T01:41:44.641Z,74365
2016-07-27T01:41:53.360Z,74367
2016-07-27T01:42:02.079Z,74366
2016-07-27T01:42:10.765Z,74367
2016-07-27T01:42:19.483Z,74367
2016-07-27T01:42:28.236Z,74366
2016-07-27T01:42:36.967Z,74365
2016-07-27T01:42:45.697Z,74365
2016-07-27T01:42:54.409Z,74367
2016-07-27T01:43:03.184Z,74364
2016-07-27T01:43:11.939Z,74363
2016-07-27T01:43:20.726Z,74365
2016-07-27T01:43:29.480Z,74366
2016-07-27T01:43:38.231Z,74365
2016-07-27T01:43:47.019Z,74364
2016-07-27T01:43:55.768Z,74364
2016-07-27T01:44:04.475Z,74364
2016-07-27T01:44:13.188Z,74366
2016-07-27T01:44:21.951Z,74363
2016-07-27T01:44:31.344Z,74364
2016-07-27T01:44:40.032Z,74368
2016-07-27T01:44:48.763Z,74364
2016-07-27T01:44:57.547Z,74363
2016-07-27T01:45:06.245Z,74364
2016-07-27T01:45:14.977Z,74363
2016-07-27T01:45:23.751Z,74363
2016-07-27T01:45:32.546Z,74363
2016-07-27T01:45:41.322Z,74362
2016-07-27T01:45:50.041Z,74363
2016-07-27T01:45:58.793Z,74364
2016-07-27T01:46:07.524Z,74362
2016-07-27T01:46:16.279Z,74361
2016-07-27T01:46:25.030Z,74364
2016-07-27T01:46:33.712Z,74363
2016-07-27T01:46:42.373Z,74360
2016-07-27T01:46:51.071Z,74359
2016-07-27T01:46:59.850Z,74358
2016-07-27T01:47:08.583Z,74361
2016-07-27T01:47:17.325Z,74365
2016-07-27T01:47:25.982Z,74361
2016-07-27T01:47:34.744Z,74358
2016-07-27T01:47:43.466Z,74362
2016-07-27T01:47:52.219Z,74361
2016-07-27T01:48:00.995Z,74361
2016-07-27T01:48:09.764Z,74354
2016-07-27T01:48:18.520Z,74363
2016-07-27T01:48:27.260Z,74365
2016-07-27T01:48:35.992Z,74363
2016-07-27T01:48:44.748Z,74359
2016-07-27T01:48:53.412Z,74363
2016-07-27T01:49:02.134Z,74363
2016-07-27T01:49:10.841Z,74364
2016-07-27T01:49:19.544Z,74359
2016-07-27T01:49:28.367Z,74363
2016-07-27T01:49:37.140Z,74363
2016-07-27T01:49:45.860Z,74363
2016-07-27T01:49:54.648Z,74360
2016-07-27T01:50:03.336Z,74358
2016-07-27T01:50:12.124Z,74362
2016-07-27T01:50:20.878Z,74363
2016-07-27T01:50:29.597Z,74364
2016-07-27T01:50:38.315Z,74360
2016-07-27T01:50:47.098Z,74362
2016-07-27T01:50:55.793Z,74364
2016-07-27T01:51:04.564Z,74364
2016-07-27T01:51:13.325Z,74361
2016-07-27T01:51:21.995Z,74362
2016-07-27T01:51:39.483Z,74362
2016-07-27T01:51:48.238Z,74362
2016-07-27T01:51:56.938Z,74365
2016-07-27T01:52:05.669Z,74360
2016-07-27T01:52:14.381Z,74361
2016-07-27T01:52:23.177Z,74361
2016-07-27T01:52:31.897Z,74362
2016-07-27T01:52:40.637Z,74363
2016-07-27T01:52:49.372Z,74360
2016-07-27T01:52:58.048Z,74361
2016-07-27T01:53:06.805Z,74361
2016-07-27T01:53:15.563Z,74363
2016-07-27T01:53:24.285Z,74363
2016-07-27T01:53:33.021Z,74362
2016-07-27T01:53:41.764Z,74364
2016-07-27T01:53:50.495Z,74364
2016-07-27T01:53:59.184Z,74361